Terminal Aerodrome Forecast
Issued by NWS Sterling, VA

Home | Current Version | Previous Version | Text Only | Print | Product List | Glossary On
Versions: 1 2 3 4 5 6 7 8 9 10 11 12 13 14 15 16 17 18 19
000
FTUS41 KLWX 011100
TAFMRB
TAF
KMRB 011139Z 0112/0212 VRB04KT P6SM BKN050
      TEMPO 0114/0117 5SM -SN OVC030
     FM012100 13005KT 6SM -SNPL OVC025
     FM020200 VRB04KT 3SM FZRASN BKN007 OVC020
     FM020600 14006KT 2SM RA OVC007=

USA.gov is the U.S. government's official web portal to all federal, state and local government web resources and services.